Terminal Aerodrome Forecast
Issued by NWS Knoxville/Tri Cities, TN

Home | Current Version | Previous Version | Text Only | Print | Product List | Glossary On
Versions: 1 2 3 4 5 6 7 8 9 10 11 12 13 14 15 16 17 18 19 20 21 22 23 24 25 26 27 28 29 30 31 32 33 34 35 36 37 38 39 40 41 42
000
FTUS44 KMRX 221722
TAFTRI
TAF
KTRI 221722Z 2218/2318 26006KT P6SM VCTS SCT035CB BKN250
      TEMPO 2223/2302 TSRA SCT020 BKN035CB
     FM230300 VRB03KT P6SM SCT030 BKN100
     FM230500 00000KT 3SM BR SCT002 BKN150
     FM230700 00000KT 1SM BR BKN005
     FM231300 00000KT 5SM BR SCT005 BKN035
     FM231400 VRB04KT P6SM VCTS SCT030CB BKN150=

USA.gov is the U.S. government's official web portal to all federal, state and local government web resources and services.